Time;durP1;ratioP1;P1;durP2;ratioP2;P2;SDS_P1;SDS_P2;PMS_P1;PMS_P2;Temp;Humidity;BMP_temperature;BMP_pressure;BME280_temperature;BME280_humidity;BME280_pressure;Samples;Min_cycle;Max_cycle;Signal;HPM_P1;HPM_P2
2021/11/13 00:00:46;;;;;;;49.00;21.15;;;;;;;3.09;97.48;100569.28;20907361;28;20075;-68
2021/11/13 00:10:48;;;;;;;45.50;20.05;;;;;;;3.14;97.86;100575.41;20908244;28;20102;-68
2021/11/13 00:20:50;;;;;;;43.40;19.15;;;;;;;3.08;98.01;100585.66;20907212;28;20560;-69
2021/11/13 00:30:52;;;;;;;49.78;21.02;;;;;;;2.99;98.40;100586.34;20906220;28;20045;-69
2021/11/13 00:40:53;;;;;;;45.63;19.88;;;;;;;2.81;97.91;100581.72;20906205;28;20095;-69
2021/11/13 00:50:55;;;;;;;54.92;19.27;;;;;;;2.74;98.11;100577.28;20905764;28;20102;-69
2021/11/13 01:00:57;;;;;;;39.08;19.40;;;;;;;2.87;98.55;100570.59;20903859;28;20045;-70
2021/11/13 01:10:58;;;;;;;38.92;17.92;;;;;;;2.86;97.30;100575.75;20904410;28;20223;-70
2021/11/13 01:21:00;;;;;;;39.97;18.30;;;;;;;2.92;96.97;100558.63;20902566;28;20045;-69
2021/11/13 01:31:02;;;;;;;42.22;18.35;;;;;;;2.93;97.00;100528.50;20901471;28;20499;-70
2021/11/13 01:41:08;;;;;;;40.45;17.77;;;;;;;2.92;97.46;100535.34;20903206;28;20474;-70
2021/11/13 01:51:24;;;;;;;41.33;18.90;;;;;;;2.86;97.78;100526.63;20901065;28;20056;-70
2021/11/13 02:01:27;;;;;;;40.10;18.63;;;;;;;2.83;97.84;100517.97;20899774;28;20041;-70
2021/11/13 02:11:29;;;;;;;36.45;16.50;;;;;;;2.88;97.89;100517.19;20899738;28;20049;-69
2021/11/13 02:21:31;;;;;;;45.88;18.85;;;;;;;2.91;97.94;100507.75;20899736;28;20383;-69
2021/11/13 02:31:34;;;;;;;38.75;17.90;;;;;;;2.86;98.58;100506.81;20898943;28;20107;-70
2021/11/13 02:41:37;;;;;;;47.00;18.80;;;;;;;3.01;97.96;100509.63;20903883;28;20079;-69
2021/11/13 02:51:39;;;;;;;38.38;17.83;;;;;;;2.96;98.24;100503.53;20914872;28;20053;-70
2021/11/13 03:01:40;;;;;;;45.67;18.83;;;;;;;2.98;97.61;100503.56;20913753;28;20045;-68
2021/11/13 03:11:42;;;;;;;41.03;17.98;;;;;;;3.01;98.46;100495.84;20913667;28;20456;-68
2021/11/13 03:21:43;;;;;;;45.40;18.38;;;;;;;3.01;98.03;100490.66;20912515;28;20049;-68
2021/11/13 03:31:45;;;;;;;39.22;16.70;;;;;;;3.00;97.78;100488.94;20910467;28;20098;-69
2021/11/13 03:41:46;;;;;;;40.58;17.58;;;;;;;3.01;98.22;100459.63;20910937;28;20049;-69
2021/11/13 03:51:48;;;;;;;39.15;16.90;;;;;;;3.05;97.88;100451.06;20910118;28;20052;-69
2021/11/13 04:01:50;;;;;;;43.92;18.02;;;;;;;3.01;97.84;100454.47;20908706;28;20045;-69
2021/11/13 04:11:51;;;;;;;39.38;17.38;;;;;;;3.09;98.02;100443.38;20908697;28;20123;-69
2021/11/13 04:21:54;;;;;;;42.13;17.98;;;;;;;3.06;98.09;100468.31;20908743;28;20091;-69
2021/11/13 04:31:55;;;;;;;38.63;17.50;;;;;;;3.03;98.06;100452.78;20906617;28;20103;-69
2021/11/13 04:41:57;;;;;;;35.83;17.77;;;;;;;3.11;97.58;100455.47;20907357;28;20045;-69
2021/11/13 04:52:00;;;;;;;40.95;17.73;;;;;;;3.06;97.13;100453.69;20906324;28;20049;-69
2021/11/13 05:02:21;;;;;;;37.55;17.35;;;;;;;3.08;97.72;100456.31;20902995;28;20445;-68
2021/11/13 05:12:22;;;;;;;39.47;17.77;;;;;;;3.18;97.37;100446.97;20904155;28;20048;-68
2021/11/13 05:22:24;;;;;;;39.22;18.13;;;;;;;3.21;97.64;100426.28;20904000;28;20045;-68
2021/11/13 05:32:25;;;;;;;39.97;19.73;;;;;;;3.23;97.58;100422.91;20901562;28;20099;-69
2021/11/13 05:42:27;;;;;;;44.33;19.77;;;;;;;3.16;97.88;100438.28;20901934;28;20045;-69
2021/11/13 05:52:28;;;;;;;43.80;19.92;;;;;;;3.23;98.35;100441.00;20899787;28;20048;-68
2021/11/13 06:02:30;;;;;;;41.80;19.13;;;;;;;3.33;97.93;100418.72;20900670;28;20045;-69
2021/11/13 06:12:32;;;;;;;43.25;20.00;;;;;;;3.34;98.36;100423.91;20901141;28;20456;-69
2021/11/13 06:22:34;;;;;;;48.72;20.90;;;;;;;3.42;98.41;100405.91;20914826;28;20049;-69
2021/11/13 06:32:36;;;;;;;45.97;20.98;;;;;;;3.39;98.31;100420.53;20916124;28;20106;-69
2021/11/13 06:42:38;;;;;;;53.00;22.98;;;;;;;3.42;98.68;100436.09;20916163;28;20049;-69
2021/11/13 06:52:40;;;;;;;39.42;17.73;;;;;;;3.58;98.07;100433.72;20914626;28;20048;-68
2021/11/13 07:02:42;;;;;;;44.17;20.58;;;;;;;3.71;97.01;100450.28;20913690;28;20049;-69
2021/11/13 07:12:44;;;;;;;50.63;22.52;;;;;;;3.77;97.00;100447.78;20913656;28;20568;-68
2021/11/13 07:22:46;;;;;;;45.78;22.38;;;;;;;3.89;97.29;100449.66;20913060;28;20045;-69
2021/11/13 07:32:48;;;;;;;45.60;21.17;;;;;;;3.95;97.06;100454.91;20910624;28;20183;-71
2021/11/13 07:42:50;;;;;;;49.65;22.05;;;;;;;4.03;97.79;100442.06;20911471;28;20502;-70
2021/11/13 07:52:52;;;;;;;48.08;23.88;;;;;;;4.09;97.68;100444.72;20910855;28;20456;-71
2021/11/13 08:02:55;;;;;;;45.90;21.88;;;;;;;4.18;97.57;100442.22;20919777;28;20045;-70
2021/11/13 08:12:56;;;;;;;44.92;23.83;;;;;;;4.33;96.42;100451.88;20937559;28;20114;-70
2021/11/13 08:22:58;;;;;;;51.10;22.98;;;;;;;4.30;96.44;100452.69;20940934;28;20045;-70
2021/11/13 08:33:01;;;;;;;45.15;22.02;;;;;;;4.31;96.34;100472.59;20973032;28;20053;-70
2021/11/13 08:43:02;;;;;;;43.72;21.88;;;;;;;4.35;96.53;100463.13;20927745;28;20053;-70
2021/11/13 08:53:06;;;;;;;43.08;21.05;;;;;;;4.56;95.35;100449.53;20936127;28;20048;-69
2021/11/13 09:03:20;;;;;;;41.17;22.33;;;;;;;4.87;95.07;100420.38;20899073;28;20045;-70
2021/11/13 09:13:25;;;;;;;37.63;20.97;;;;;;;5.02;94.81;100414.44;20926339;28;20048;-73
2021/11/13 09:23:27;;;;;;;37.28;20.23;;;;;;;5.30;94.29;100412.88;20979389;28;20048;-73
2021/11/13 09:33:30;;;;;;;39.67;20.13;;;;;;;5.48;95.45;100411.25;20977475;28;20105;-75
2021/11/13 09:43:33;;;;;;;38.20;20.30;;;;;;;5.70;96.08;100431.28;20973224;28;20098;-75
2021/11/13 09:53:36;;;;;;;38.38;19.30;;;;;;;5.90;95.57;100424.44;20976627;28;20048;-74
2021/11/13 10:03:38;;;;;;;37.60;21.02;;;;;;;6.08;95.75;100413.25;20975011;28;20048;-75
2021/11/13 10:13:43;;;;;;;35.30;19.63;;;;;;;6.47;95.82;100415.91;20975601;28;20121;-75
2021/11/13 10:23:48;;;;;;;34.60;19.30;;;;;;;6.69;95.62;100408.13;20975192;28;20063;-71
2021/11/13 10:33:51;;;;;;;33.27;19.10;;;;;;;6.62;95.75;100398.63;20975509;28;20078;-71
2021/11/13 10:43:53;;;;;;;32.67;18.83;;;;;;;6.78;95.70;100370.84;20974826;28;20326;-71
2021/11/13 10:53:56;;;;;;;31.30;19.20;;;;;;;6.72;96.04;100365.66;20973693;28;20492;-72
2021/11/13 11:04:35;;;;;;;38.65;21.15;;;;;;;6.76;96.07;100350.91;20979762;28;20558;-72
2021/11/13 11:14:39;;;;;;;32.45;18.75;;;;;;;6.57;96.76;100344.84;20916366;28;20126;-73
2021/11/13 11:24:48;;;;;;;37.47;20.95;;;;;;;6.83;96.76;100322.25;20904697;28;20045;-71
2021/11/13 11:34:52;;;;;;;34.33;19.27;;;;;;;6.73;97.18;100323.16;20902664;28;20048;-79
2021/11/13 11:44:58;;;;;;;33.28;19.15;;;;;;;6.86;97.11;100314.47;20904521;28;20063;-71
2021/11/13 11:55:01;;;;;;;32.10;18.90;;;;;;;7.00;96.46;100308.38;20902843;28;20228;-81
2021/11/13 12:05:11;;;;;;;32.60;18.73;;;;;;;7.15;96.75;100308.31;20900364;28;20056;-70
2021/11/13 12:15:22;;;;;;;31.52;18.52;;;;;;;7.21;97.13;100303.06;20945307;28;20110;-71
2021/11/13 12:25:31;;;;;;;33.40;19.33;;;;;;;7.29;96.91;100296.09;20982551;28;20162;-75
2021/11/13 12:36:07;;;;;;;27.95;18.08;;;;;;;7.36;96.96;100289.97;20981614;28;20044;-75
2021/11/13 12:46:27;;;;;;;31.27;20.08;;;;;;;7.33;97.35;100284.81;20969267;28;20478;-75
2021/11/13 12:56:48;;;;;;;29.77;18.35;;;;;;;7.37;97.81;100278.69;20971473;28;20103;-74
2021/11/13 13:06:51;;;;;;;30.30;18.05;;;;;;;7.38;98.72;100280.44;20893943;28;20049;-73
2021/11/13 13:16:53;;;;;;;29.20;18.42;;;;;;;7.29;99.17;100285.69;20955987;28;20402;-72
2021/11/13 13:27:07;;;;;;;32.35;19.77;;;;;;;7.33;99.34;100284.81;20978451;28;20048;-73
2021/11/13 13:37:16;;;;;;;32.00;18.80;;;;;;;7.49;99.08;100276.91;20977848;28;20094;-75
2021/11/13 13:47:24;;;;;;;29.02;17.55;;;;;;;7.43;99.06;100291.72;20978096;28;20114;-73
2021/11/13 13:57:26;;;;;;;37.08;20.90;;;;;;;7.40;99.57;100288.25;20976154;28;20531;-74
2021/11/13 14:07:32;;;;;;;36.17;20.45;;;;;;;7.40;100.00;100283.91;20975428;28;20212;-75
2021/11/13 14:17:34;;;;;;;32.00;19.27;;;;;;;7.48;99.74;100281.25;20911770;28;20053;-73
2021/11/13 14:27:40;;;;;;;31.10;18.90;;;;;;;7.56;99.76;100283.81;20892115;28;20045;-74
2021/11/13 14:37:42;;;;;;;33.13;19.00;;;;;;;7.59;99.39;100278.59;20897846;28;20379;-73
2021/11/13 14:47:44;;;;;;;27.23;17.92;;;;;;;7.63;99.19;100280.31;20908160;28;20112;-73
2021/11/13 14:57:49;;;;;;;27.45;17.65;;;;;;;7.62;99.72;100283.81;20907380;28;20049;-74
2021/11/13 15:07:50;;;;;;;;;;;;;;;7.67;99.71;100293.31;20907074;28;20123;-74
2021/11/13 15:17:52;;;;;;;37.78;22.67;;;;;;;7.66;99.53;100301.97;20972203;28;19927;-72
2021/11/13 15:28:03;;;;;;;36.20;21.83;;;;;;;7.53;99.60;100304.69;20988430;28;20576;-72
2021/11/13 15:38:16;;;;;;;35.08;22.40;;;;;;;7.52;100.00;100303.81;20986678;28;20056;-82
2021/11/13 15:48:20;;;;;;;36.63;23.75;;;;;;;7.53;100.00;100304.69;20984775;28;20049;-73
2021/11/13 15:58:21;;;;;;;36.85;23.67;;;;;;;7.50;100.00;100304.69;20985524;28;20048;-73
2021/11/13 16:08:23;;;;;;;39.78;23.27;;;;;;;7.49;100.00;100302.97;20982831;28;20460;-73
2021/11/13 16:18:26;;;;;;;43.67;28.30;;;;;;;7.46;100.00;100303.84;20984256;28;20122;-74
2021/11/13 16:28:28;;;;;;;41.88;26.90;;;;;;;7.44;100.00;100310.81;20984416;28;20053;-74
2021/11/13 16:38:30;;;;;;;46.45;28.15;;;;;;;7.49;100.00;100313.38;20981779;28;20559;-73
2021/11/13 16:48:34;;;;;;;48.42;29.15;;;;;;;7.52;100.00;100310.75;20981969;28;20052;-73
2021/11/13 16:58:36;;;;;;;58.53;33.17;;;;;;;7.52;100.00;100314.25;20980166;28;20444;-73
2021/11/13 17:08:38;;;;;;;47.45;27.27;;;;;;;7.57;100.00;100324.63;20980323;28;20489;-73
2021/11/13 17:18:42;;;;;;;48.90;29.95;;;;;;;7.58;100.00;100324.63;20905513;28;20052;-72
2021/11/13 17:28:44;;;;;;;52.15;32.95;;;;;;;7.67;100.00;100328.94;20894778;28;20111;-73
2021/11/13 17:38:46;;;;;;;51.40;28.77;;;;;;;7.75;100.00;100337.56;20934650;28;20134;-73
2021/11/13 17:48:47;;;;;;;46.92;27.63;;;;;;;7.76;100.00;100333.22;20938734;28;20401;-73
2021/11/13 17:58:49;;;;;;;49.58;28.48;;;;;;;7.78;100.00;100341.91;20975431;28;20052;-73
2021/11/13 18:08:50;;;;;;;48.35;28.15;;;;;;;7.75;100.00;100326.28;20974607;28;20041;-75
2021/11/13 18:18:52;;;;;;;52.25;31.08;;;;;;;7.77;100.00;100335.84;20975734;28;20106;-73
2021/11/13 18:28:54;;;;;;;54.22;30.10;;;;;;;7.80;100.00;100338.41;20975222;28;20079;-73
2021/11/13 18:38:56;;;;;;;53.92;29.70;;;;;;;7.89;100.00;100351.38;21051736;28;20047;-73
2021/11/13 18:48:58;;;;;;;50.97;28.60;;;;;;;7.91;100.00;100349.66;21056169;28;20051;-73
2021/11/13 18:58:59;;;;;;;75.90;47.10;;;;;;;7.96;100.00;100337.47;21057244;28;20052;-73
2021/11/13 19:09:01;;;;;;;64.25;37.05;;;;;;;7.95;100.00;100345.25;21056401;28;20112;-73
2021/11/13 19:19:03;;;;;;;60.45;34.60;;;;;;;7.94;100.00;100349.63;20977496;28;20056;-74
2021/11/13 19:29:05;;;;;;;58.90;31.92;;;;;;;8.01;100.00;100344.38;20985129;28;20110;-74
2021/11/13 19:39:07;;;;;;;54.42;31.42;;;;;;;8.02;100.00;100348.72;20986210;28;20057;-73
2021/11/13 19:49:08;;;;;;;54.63;28.63;;;;;;;8.10;100.00;100352.16;20985595;28;20052;-75
2021/11/13 19:59:10;;;;;;;46.83;28.27;;;;;;;8.13;100.00;100354.72;20985675;28;20060;-74
2021/11/13 20:09:12;;;;;;;47.35;25.75;;;;;;;8.14;100.00;100346.00;20983803;28;20048;-74
2021/11/13 20:19:13;;;;;;;43.78;25.20;;;;;;;8.11;100.00;100348.66;20905169;28;20102;-74
2021/11/13 20:29:15;;;;;;;45.40;27.10;;;;;;;8.11;100.00;100341.72;20969297;28;20475;-74
2021/11/13 20:39:22;;;;;;;48.63;27.95;;;;;;;8.14;100.00;100359.06;20981258;28;20052;-74
2021/11/13 20:49:23;;;;;;;48.13;27.85;;;;;;;8.14;100.00;100361.66;20982126;28;20048;-75
2021/11/13 20:59:27;;;;;;;50.97;28.70;;;;;;;8.14;100.00;100364.28;20980351;28;20113;-74
2021/11/13 21:09:28;;;;;;;51.60;28.08;;;;;;;8.15;100.00;100373.84;20979377;28;20048;-74
2021/11/13 21:19:30;;;;;;;58.85;31.05;;;;;;;8.17;100.00;100372.09;20897413;28;20053;-74
2021/11/13 21:29:32;;;;;;;54.80;29.83;;;;;;;8.16;100.00;100378.19;20895645;28;20453;-74
2021/11/13 21:39:35;;;;;;;59.35;30.75;;;;;;;8.14;100.00;100377.31;20893460;28;20045;-74
2021/11/13 21:49:37;;;;;;;59.35;32.15;;;;;;;8.13;100.00;100363.41;20893934;28;20068;-73
2021/11/13 21:59:39;;;;;;;53.33;29.40;;;;;;;8.15;100.00;100363.41;20893245;28;20098;-72
2021/11/13 22:09:40;;;;;;;60.60;32.03;;;;;;;8.14;100.00;100372.09;20958862;28;20052;-73
2021/11/13 22:19:42;;;;;;;59.03;29.48;;;;;;;8.14;100.00;100372.09;20975815;28;20052;-72
2021/11/13 22:29:43;;;;;;;57.10;29.35;;;;;;;8.15;100.00;100358.22;20973883;28;20390;-73
2021/11/13 22:39:45;;;;;;;56.45;26.92;;;;;;;8.15;100.00;100361.69;20973276;28;20052;-72
2021/11/13 22:49:46;;;;;;;63.42;30.30;;;;;;;8.19;100.00;100366.00;20929316;28;20148;-72
2021/11/13 22:59:48;;;;;;;50.63;25.42;;;;;;;8.19;100.00;100367.72;20965586;28;20094;-72
2021/11/13 23:09:50;;;;;;;56.03;26.75;;;;;;;8.21;100.00;100353.81;20992669;28;20114;-73
2021/11/13 23:19:51;;;;;;;49.95;24.10;;;;;;;8.21;100.00;100342.50;20995102;28;20509;-73
2021/11/13 23:29:53;;;;;;;54.15;25.45;;;;;;;8.19;100.00;100346.84;20994445;28;20098;-73
2021/11/13 23:39:55;;;;;;;44.03;23.05;;;;;;;8.20;100.00;100346.00;20993442;28;20520;-72
2021/11/13 23:49:56;;;;;;;44.83;24.40;;;;;;;8.24;100.00;100352.94;20992801;28;20045;-73
2021/11/13 23:59:58;;;;;;;46.80;25.58;;;;;;;8.22;100.00;100346.84;20993475;28;20053;-72
